createdAt,value
2019-03-08T00:01:05.287Z,934.90
2019-03-08T00:02:13.373Z,934.92
2019-03-08T00:03:21.390Z,934.91
2019-03-08T00:04:29.177Z,934.91
2019-03-08T00:05:37.037Z,934.93
2019-03-08T00:06:45.003Z,934.99
2019-03-08T00:07:53.122Z,935.02
2019-03-08T00:09:01.107Z,935.00
2019-03-08T00:10:09.723Z,935.03
2019-03-08T00:11:17.229Z,935.04
2019-03-08T00:12:26.006Z,935.12
2019-03-08T00:13:34.033Z,935.10
2019-03-08T00:14:41.938Z,935.11
2019-03-08T00:15:49.456Z,935.16
2019-03-08T00:16:57.881Z,935.10
2019-03-08T00:18:05.595Z,935.13
2019-03-08T00:19:13.737Z,935.15
2019-03-08T00:20:21.703Z,935.10
2019-03-08T00:21:29.850Z,935.15
2019-03-08T00:22:37.814Z,935.16
2019-03-08T00:23:45.883Z,935.18
2019-03-08T00:24:54.533Z,935.19
2019-03-08T00:26:02.231Z,935.22
2019-03-08T00:27:10.679Z,935.21
2019-03-08T00:28:18.687Z,935.29
2019-03-08T00:29:26.815Z,935.27
2019-03-08T00:30:34.896Z,935.31
2019-03-08T00:31:42.577Z,935.31
2019-03-08T00:32:51.008Z,935.35
2019-03-08T00:33:58.572Z,935.38
2019-03-08T00:35:06.959Z,935.35
2019-03-08T00:36:14.577Z,935.39
2019-03-08T00:37:23.207Z,935.37
2019-03-08T00:38:30.618Z,935.45
2019-03-08T00:39:39.294Z,935.40
2019-03-08T00:40:46.744Z,935.38
2019-03-08T00:41:54.809Z,935.43
2019-03-08T00:43:03.073Z,935.43
2019-03-08T00:44:11.241Z,935.39
2019-03-08T00:45:19.214Z,935.44
2019-03-08T00:46:27.092Z,935.48
2019-03-08T00:47:35.096Z,935.43
2019-03-08T00:48:43.129Z,935.42
2019-03-08T00:49:51.191Z,935.39
2019-03-08T00:50:59.221Z,935.35
2019-03-08T00:52:07.749Z,935.40
2019-03-08T00:53:15.776Z,935.44
2019-03-08T00:54:23.414Z,935.54
2019-03-08T00:55:31.485Z,935.54
2019-03-08T00:56:39.791Z,935.54
2019-03-08T00:57:47.638Z,935.49
2019-03-08T00:58:55.804Z,935.50
2019-03-08T01:00:03.720Z,935.55
2019-03-08T01:01:11.769Z,935.54
2019-03-08T01:02:19.822Z,935.57
2019-03-08T01:03:27.886Z,935.56
2019-03-08T01:04:35.951Z,935.53
2019-03-08T01:05:44.030Z,935.55
2019-03-08T01:06:52.094Z,935.56
2019-03-08T01:08:00.240Z,935.57
2019-03-08T01:09:08.179Z,935.57
2019-03-08T01:10:16.249Z,935.52
2019-03-08T01:11:24.294Z,935.54
2019-03-08T01:12:32.390Z,935.48
2019-03-08T01:13:40.413Z,935.54
2019-03-08T01:14:48.483Z,935.56
2019-03-08T01:15:56.539Z,935.58
2019-03-08T01:17:04.584Z,935.59
2019-03-08T01:18:12.736Z,935.58
2019-03-08T01:19:20.715Z,935.54
2019-03-08T01:20:28.734Z,935.59
2019-03-08T01:21:36.815Z,935.63
2019-03-08T01:22:44.874Z,935.62
2019-03-08T01:23:53.026Z,935.63
2019-03-08T01:25:01.013Z,935.63
2019-03-08T01:26:09.045Z,935.62
2019-03-08T01:27:17.108Z,935.63
2019-03-08T01:28:25.148Z,935.62
2019-03-08T01:29:33.307Z,935.65
2019-03-08T01:30:41.276Z,935.64
2019-03-08T01:31:49.324Z,935.67
2019-03-08T01:32:57.379Z,935.70
2019-03-08T01:34:05.477Z,935.75
2019-03-08T01:35:13.632Z,935.72
2019-03-08T01:36:21.579Z,935.74
2019-03-08T01:37:29.650Z,935.69
2019-03-08T01:38:37.707Z,935.72
2019-03-08T01:39:45.771Z,935.66
2019-03-08T01:40:53.890Z,935.67
2019-03-08T01:42:01.858Z,935.72
2019-03-08T01:43:09.903Z,935.71
2019-03-08T01:44:17.963Z,935.70
2019-03-08T01:45:26.009Z,935.70
2019-03-08T01:46:34.181Z,935.67
2019-03-08T01:47:42.130Z,935.65
2019-03-08T01:48:50.185Z,935.67
2019-03-08T01:49:58.245Z,935.69
2019-03-08T01:51:06.318Z,935.64
2019-03-08T01:52:14.477Z,935.71
2019-03-08T01:53:22.427Z,935.72
2019-03-08T01:54:30.588Z,935.66
2019-03-08T01:55:38.539Z,935.70
2019-03-08T01:56:46.616Z,935.74
2019-03-08T01:57:54.755Z,935.77
2019-03-08T01:59:02.739Z,935.74
2019-03-08T02:00:10.856Z,935.75
2019-03-08T02:01:18.827Z,935.74
2019-03-08T02:02:26.928Z,935.76
2019-03-08T02:03:34.949Z,935.72
2019-03-08T02:04:43.012Z,935.75
2019-03-08T02:05:51.060Z,935.78
2019-03-08T02:06:59.113Z,935.73
2019-03-08T02:08:07.225Z,935.73
2019-03-08T02:09:15.241Z,935.74
2019-03-08T02:10:28.540Z,935.69
2019-03-08T02:11:31.353Z,935.72
2019-03-08T02:12:39.532Z,935.75
2019-03-08T02:13:47.471Z,935.71
2019-03-08T02:14:55.514Z,935.72
2019-03-08T02:16:03.576Z,935.75
2019-03-08T02:17:11.648Z,935.79
2019-03-08T02:18:19.764Z,935.77
2019-03-08T02:19:27.759Z,935.68
2019-03-08T02:20:35.830Z,935.70
2019-03-08T02:21:43.912Z,935.71
2019-03-08T02:22:51.957Z,935.74
2019-03-08T02:24:00.147Z,935.76
2019-03-08T02:25:08.047Z,935.74
2019-03-08T02:26:16.210Z,935.74
2019-03-08T02:27:24.175Z,935.72
2019-03-08T02:28:32.236Z,935.69
2019-03-08T02:29:40.401Z,935.80
2019-03-08T02:30:48.353Z,935.80
2019-03-08T02:31:56.417Z,935.78
2019-03-08T02:33:04.496Z,935.79
2019-03-08T02:34:12.516Z,935.81
2019-03-08T02:35:20.672Z,935.76
2019-03-08T02:36:28.626Z,935.75
2019-03-08T02:37:36.699Z,935.83
2019-03-08T02:38:44.745Z,935.85
2019-03-08T02:39:52.824Z,935.83
2019-03-08T02:41:00.961Z,935.91
2019-03-08T02:42:08.909Z,935.92
2019-03-08T02:43:17.035Z,935.93
2019-03-08T02:44:25.051Z,935.98
2019-03-08T02:45:33.111Z,936.03
2019-03-08T02:46:41.255Z,935.99
2019-03-08T02:47:49.197Z,935.95
2019-03-08T02:48:57.286Z,935.96
2019-03-08T02:50:05.338Z,935.99
2019-03-08T02:51:13.393Z,936.01
2019-03-08T02:52:21.542Z,936.03
2019-03-08T02:53:29.510Z,936.07
2019-03-08T02:54:37.575Z,936.11
2019-03-08T02:55:45.617Z,936.02
2019-03-08T02:56:53.697Z,936.08
2019-03-08T02:58:01.791Z,936.07
2019-03-08T02:59:10.247Z,935.99
2019-03-08T03:00:17.862Z,936.08
2019-03-08T03:01:25.913Z,936.17
2019-03-08T03:02:34.028Z,936.08
2019-03-08T03:03:42.031Z,936.10
2019-03-08T03:04:50.084Z,936.07
2019-03-08T03:05:58.169Z,936.02
2019-03-08T03:07:06.218Z,936.11
2019-03-08T03:08:14.357Z,936.11
2019-03-08T03:09:22.308Z,936.17
2019-03-08T03:10:30.358Z,936.17
2019-03-08T03:11:38.420Z,936.13
2019-03-08T03:12:46.496Z,936.10
2019-03-08T03:13:54.647Z,936.13
2019-03-08T03:15:02.657Z,936.18
2019-03-08T03:16:10.665Z,936.19
2019-03-08T03:17:18.704Z,936.13
2019-03-08T03:18:26.846Z,936.11
2019-03-08T03:19:34.943Z,936.16
2019-03-08T03:20:42.923Z,936.20
2019-03-08T03:21:50.975Z,936.27
2019-03-08T03:22:59.028Z,936.26
2019-03-08T03:24:07.070Z,936.20
2019-03-08T03:25:15.253Z,936.17
2019-03-08T03:26:23.190Z,936.16
2019-03-08T03:27:31.231Z,936.26
2019-03-08T03:28:39.285Z,936.18
2019-03-08T03:29:47.370Z,936.29
2019-03-08T03:30:55.520Z,936.22
2019-03-08T03:32:03.467Z,936.17
2019-03-08T03:33:11.631Z,936.21
2019-03-08T03:34:19.581Z,936.22
2019-03-08T03:35:27.648Z,936.27
2019-03-08T03:36:35.799Z,936.30
2019-03-08T03:37:43.780Z,936.30
2019-03-08T03:38:51.813Z,936.33
2019-03-08T03:39:59.880Z,936.38
2019-03-08T03:41:07.948Z,936.40
2019-03-08T03:42:16.452Z,936.49
2019-03-08T03:43:24.056Z,936.41
2019-03-08T03:44:32.120Z,936.49
2019-03-08T03:45:40.184Z,936.47
2019-03-08T03:46:48.226Z,936.50
2019-03-08T03:47:56.339Z,936.51
2019-03-08T03:49:04.423Z,936.54
2019-03-08T03:50:12.438Z,936.55
2019-03-08T03:51:20.463Z,936.57
2019-03-08T03:52:28.550Z,936.61
2019-03-08T03:53:36.580Z,936.62
2019-03-08T03:54:44.648Z,936.68
2019-03-08T03:55:52.689Z,936.72
2019-03-08T03:57:00.761Z,936.74
2019-03-08T03:58:08.837Z,936.76
2019-03-08T03:59:16.876Z,936.75
2019-03-08T04:00:24.926Z,936.76
2019-03-08T04:01:32.983Z,936.72
2019-03-08T04:02:41.164Z,936.78
2019-03-08T04:03:49.077Z,936.84
2019-03-08T04:04:57.252Z,936.95
2019-03-08T04:06:05.220Z,936.89
2019-03-08T04:07:13.285Z,936.78
2019-03-08T04:08:21.376Z,936.94
2019-03-08T04:09:29.389Z,936.91
2019-03-08T04:10:37.448Z,936.90
2019-03-08T04:11:45.511Z,936.98
2019-03-08T04:12:53.687Z,936.96
2019-03-08T04:14:01.652Z,936.95
2019-03-08T04:15:09.714Z,937.03
2019-03-08T04:16:17.761Z,937.05
2019-03-08T04:17:25.845Z,937.06
2019-03-08T04:18:33.976Z,937.13
2019-03-08T04:19:41.925Z,937.11
2019-03-08T04:20:50.248Z,937.15
2019-03-08T04:21:58.050Z,937.16
2019-03-08T04:23:06.103Z,937.16
2019-03-08T04:24:14.256Z,937.15
2019-03-08T04:25:22.226Z,937.15
2019-03-08T04:26:30.291Z,937.13
2019-03-08T04:27:38.331Z,937.14
2019-03-08T04:28:46.402Z,937.16
2019-03-08T04:29:56.588Z,937.18
2019-03-08T04:31:02.512Z,937.13
2019-03-08T04:32:10.565Z,937.14
2019-03-08T04:33:18.628Z,937.13
2019-03-08T04:34:26.689Z,937.21
2019-03-08T04:35:34.845Z,937.13
2019-03-08T04:36:43.246Z,937.14
2019-03-08T04:37:50.871Z,937.17
2019-03-08T04:38:58.908Z,937.22
2019-03-08T04:40:07.018Z,937.19
2019-03-08T04:41:15.147Z,937.20
2019-03-08T04:42:23.106Z,937.25
2019-03-08T04:43:31.160Z,937.23
2019-03-08T04:44:39.191Z,937.20
2019-03-08T04:45:47.264Z,937.25
2019-03-08T04:46:55.437Z,937.27
2019-03-08T04:48:03.389Z,937.25
2019-03-08T04:49:11.451Z,937.25
2019-03-08T04:50:19.514Z,937.28
2019-03-08T04:51:27.562Z,937.30
2019-03-08T04:52:35.707Z,937.30
2019-03-08T04:53:43.712Z,937.35
2019-03-08T04:54:51.738Z,937.35
2019-03-08T04:55:59.793Z,937.39
2019-03-08T04:57:07.869Z,937.37
2019-03-08T04:58:15.964Z,937.41
2019-03-08T04:59:23.958Z,937.38
2019-03-08T05:00:32.029Z,937.43
2019-03-08T05:01:40.082Z,937.41
2019-03-08T05:02:48.246Z,937.41
2019-03-08T05:03:56.351Z,937.40
2019-03-08T05:05:04.279Z,937.36
2019-03-08T05:06:12.328Z,937.38
2019-03-08T05:07:20.376Z,937.36
2019-03-08T05:08:28.521Z,937.34
2019-03-08T05:09:36.511Z,937.27
2019-03-08T05:10:44.560Z,937.31
2019-03-08T05:11:52.635Z,937.32
2019-03-08T05:13:00.693Z,937.24
2019-03-08T05:14:08.761Z,937.28
2019-03-08T05:15:16.782Z,937.29
2019-03-08T05:16:24.864Z,937.28
2019-03-08T05:17:32.912Z,937.28
2019-03-08T05:18:40.975Z,937.30
2019-03-08T05:19:49.123Z,937.30
2019-03-08T05:20:57.072Z,937.33
2019-03-08T05:22:05.145Z,937.30
2019-03-08T05:23:13.932Z,937.25
2019-03-08T05:24:21.259Z,937.27
2019-03-08T05:25:29.400Z,937.27
2019-03-08T05:26:37.371Z,937.28
2019-03-08T05:27:45.980Z,937.35
2019-03-08T05:28:53.472Z,937.36
2019-03-08T05:30:01.548Z,937.37
2019-03-08T05:31:09.702Z,937.36
2019-03-08T05:32:17.660Z,937.36
2019-03-08T05:33:25.819Z,937.40
2019-03-08T05:34:33.767Z,937.41
2019-03-08T05:35:42.046Z,937.43
2019-03-08T05:36:50.015Z,937.42
2019-03-08T05:37:57.958Z,937.39
2019-03-08T05:39:06.117Z,937.44
2019-03-08T05:40:14.331Z,937.40
2019-03-08T05:41:22.119Z,937.42
2019-03-08T05:42:30.287Z,937.43
2019-03-08T05:43:38.240Z,937.49
2019-03-08T05:44:46.308Z,937.50
2019-03-08T05:45:54.357Z,937.51
2019-03-08T05:47:02.414Z,937.46
2019-03-08T05:48:10.540Z,937.45
2019-03-08T05:49:18.528Z,937.46
2019-03-08T05:50:26.596Z,937.51
2019-03-08T05:51:34.669Z,937.58
2019-03-08T05:52:42.817Z,937.53
2019-03-08T05:53:50.775Z,937.59
2019-03-08T05:54:59.981Z,937.65
2019-03-08T05:56:06.896Z,937.61
2019-03-08T05:57:14.955Z,937.64
2019-03-08T05:58:23.098Z,937.61
2019-03-08T05:59:31.137Z,937.62
2019-03-08T06:00:39.102Z,937.66
2019-03-08T06:01:47.212Z,937.71
2019-03-08T06:02:56.078Z,937.77
2019-03-08T06:04:03.421Z,937.77
2019-03-08T06:05:11.354Z,937.75
2019-03-08T06:06:19.401Z,937.75
2019-03-08T06:07:27.488Z,937.76
2019-03-08T06:08:35.543Z,937.79
2019-03-08T06:09:43.672Z,937.79
2019-03-08T06:10:51.749Z,937.83
2019-03-08T06:11:59.715Z,937.86
2019-03-08T06:13:07.907Z,937.85
2019-03-08T06:14:15.843Z,937.86
2019-03-08T06:15:23.944Z,937.94
2019-03-08T06:16:31.963Z,937.95
2019-03-08T06:17:40.012Z,937.99
2019-03-08T06:18:48.144Z,937.96
2019-03-08T06:19:56.564Z,938.00
2019-03-08T06:21:04.191Z,938.03
2019-03-08T06:22:12.244Z,938.06
2019-03-08T06:23:20.299Z,938.07
2019-03-08T06:24:28.347Z,938.04
2019-03-08T06:25:36.511Z,938.00
2019-03-08T06:26:44.521Z,938.12
2019-03-08T06:27:52.557Z,938.15
2019-03-08T06:29:00.606Z,938.16
2019-03-08T06:30:08.637Z,938.22
2019-03-08T06:31:16.812Z,938.21
2019-03-08T06:32:24.766Z,938.21
2019-03-08T06:33:32.836Z,938.22
2019-03-08T06:34:40.894Z,938.26
2019-03-08T06:35:48.927Z,938.18
2019-03-08T06:36:57.111Z,938.28
2019-03-08T06:38:05.055Z,938.33
2019-03-08T06:39:13.118Z,938.38
2019-03-08T06:40:21.192Z,938.40
2019-03-08T06:41:29.317Z,938.46
2019-03-08T06:42:37.351Z,938.45
2019-03-08T06:43:45.379Z,938.47
2019-03-08T06:44:53.440Z,938.46
2019-03-08T06:46:01.506Z,938.48
2019-03-08T06:47:09.643Z,938.53
2019-03-08T06:48:17.603Z,938.55
2019-03-08T06:49:25.653Z,938.60
2019-03-08T06:50:33.725Z,938.61
2019-03-08T06:51:41.799Z,938.65
2019-03-08T06:52:49.867Z,938.67
2019-03-08T06:53:57.897Z,938.66
2019-03-08T06:55:05.945Z,938.69
2019-03-08T06:56:14.010Z,938.71
2019-03-08T06:57:22.134Z,938.71
2019-03-08T06:58:30.140Z,938.76
2019-03-08T06:59:38.195Z,938.75
2019-03-08T07:00:46.247Z,938.74
2019-03-08T07:01:54.293Z,938.78
2019-03-08T07:03:02.422Z,938.79
2019-03-08T07:04:10.424Z,938.73
2019-03-08T07:05:18.473Z,938.74
2019-03-08T07:06:26.549Z,938.78
2019-03-08T07:07:34.686Z,938.86
2019-03-08T07:08:42.666Z,938.87
2019-03-08T07:09:50.729Z,938.92
2019-03-08T07:10:58.759Z,938.93
2019-03-08T07:12:06.851Z,938.93
2019-03-08T07:13:15.003Z,938.94
2019-03-08T07:14:22.979Z,938.98
2019-03-08T07:15:31.023Z,938.97
2019-03-08T07:16:39.068Z,938.96
2019-03-08T07:17:47.187Z,939.07
2019-03-08T07:18:55.203Z,939.18
2019-03-08T07:20:03.265Z,939.29
2019-03-08T07:21:11.325Z,939.32
2019-03-08T07:22:19.358Z,939.32
2019-03-08T07:23:28.036Z,939.30
2019-03-08T07:24:35.502Z,939.28
2019-03-08T07:25:51.076Z,939.30
2019-03-08T07:26:51.620Z,939.27
2019-03-08T07:27:59.884Z,939.34
2019-03-08T07:29:07.728Z,939.39
2019-03-08T07:30:15.797Z,939.38
2019-03-08T07:31:23.862Z,939.43
2019-03-08T07:32:31.920Z,939.43
2019-03-08T07:33:40.113Z,939.49
2019-03-08T07:34:48.045Z,939.53
2019-03-08T07:35:56.102Z,939.60
2019-03-08T07:37:04.167Z,939.64
2019-03-08T07:38:12.223Z,939.63
2019-03-08T07:39:20.374Z,939.66
2019-03-08T07:40:28.343Z,939.70
2019-03-08T07:41:36.406Z,939.74
2019-03-08T07:42:45.131Z,939.76
2019-03-08T07:43:52.516Z,939.78
2019-03-08T07:45:00.673Z,939.74
2019-03-08T07:46:08.647Z,939.74
2019-03-08T07:47:16.724Z,939.81
2019-03-08T07:48:24.815Z,939.79
2019-03-08T07:49:32.815Z,939.81
2019-03-08T07:50:40.981Z,939.85
2019-03-08T07:51:48.959Z,939.93
2019-03-08T07:52:57.006Z,940.06
2019-03-08T07:54:05.077Z,940.38
2019-03-08T07:55:13.129Z,941.59
2019-03-08T07:56:40.453Z,941.10
2019-03-08T07:57:48.497Z,940.29
2019-03-08T07:58:56.511Z,940.17
2019-03-08T08:00:04.591Z,940.37
2019-03-08T08:01:12.736Z,941.33
2019-03-08T08:03:31.391Z,944.04
2019-03-08T08:04:39.445Z,943.09
2019-03-08T08:05:47.512Z,941.60
2019-03-08T08:06:55.813Z,941.89
2019-03-08T08:08:03.616Z,941.56
2019-03-08T08:09:11.689Z,940.84
2019-03-08T08:10:19.753Z,940.71
2019-03-08T08:11:27.806Z,940.68
2019-03-08T08:12:35.964Z,940.59
2019-03-08T08:13:43.944Z,940.53
2019-03-08T08:14:51.999Z,940.54
2019-03-08T08:16:00.062Z,940.41
2019-03-08T08:17:08.132Z,940.52
2019-03-08T08:18:16.243Z,940.56
2019-03-08T08:19:24.245Z,940.68
2019-03-08T08:20:32.318Z,940.70
2019-03-08T08:21:40.367Z,940.70
2019-03-08T08:22:48.485Z,940.74
2019-03-08T08:23:56.509Z,940.70
2019-03-08T08:25:04.561Z,940.70
2019-03-08T08:26:12.631Z,940.73
2019-03-08T08:27:20.701Z,940.75
2019-03-08T08:28:28.785Z,940.67
2019-03-08T08:29:36.820Z,940.70
2019-03-08T08:30:44.905Z,940.65
2019-03-08T08:31:52.961Z,940.61
2019-03-08T08:33:01.121Z,940.60
2019-03-08T08:34:09.066Z,940.69
2019-03-08T08:35:17.135Z,940.63
2019-03-08T08:36:25.209Z,940.68
2019-03-08T08:37:33.282Z,940.68
2019-03-08T08:38:41.415Z,940.71
2019-03-08T08:39:49.380Z,940.69
2019-03-08T08:40:57.457Z,940.66
2019-03-08T08:42:05.530Z,940.73
2019-03-08T08:43:13.689Z,940.73
2019-03-08T08:44:21.660Z,940.71
2019-03-08T08:45:29.728Z,940.82
2019-03-08T08:46:37.784Z,940.80
2019-03-08T08:47:45.854Z,940.89
2019-03-08T08:48:53.971Z,940.89
2019-03-08T08:50:01.975Z,940.88
2019-03-08T08:51:10.031Z,940.94
2019-03-08T08:52:18.104Z,940.89
2019-03-08T08:53:26.259Z,940.90
2019-03-08T08:54:34.327Z,940.85
2019-03-08T08:55:43.668Z,940.86
2019-03-08T08:56:50.367Z,940.79
2019-03-08T08:57:58.415Z,940.83
2019-03-08T08:59:06.592Z,940.83
2019-03-08T09:00:14.656Z,940.81
2019-03-08T09:01:22.636Z,940.76
2019-03-08T09:02:30.686Z,940.80
2019-03-08T09:03:38.723Z,940.78
2019-03-08T09:04:46.810Z,940.72
2019-03-08T09:05:56.400Z,940.74
2019-03-08T09:07:02.941Z,940.74
2019-03-08T09:08:11.008Z,940.67
2019-03-08T09:09:19.194Z,940.77
2019-03-08T09:10:27.127Z,940.72
2019-03-08T09:11:43.684Z,940.76
2019-03-08T09:12:43.249Z,940.75
2019-03-08T09:13:51.319Z,940.80
2019-03-08T09:14:59.421Z,940.82
2019-03-08T09:16:07.539Z,940.84
2019-03-08T09:17:15.493Z,940.86
2019-03-08T09:18:23.562Z,940.88
2019-03-08T09:19:31.636Z,940.90
2019-03-08T09:20:39.695Z,940.90
2019-03-08T09:21:47.822Z,940.98
2019-03-08T09:22:55.829Z,940.99
2019-03-08T09:24:03.874Z,941.04
2019-03-08T09:25:11.947Z,941.06
2019-03-08T09:26:20.037Z,941.06
2019-03-08T09:27:28.115Z,941.12
2019-03-08T09:28:36.128Z,941.13
2019-03-08T09:29:44.296Z,941.17
2019-03-08T09:30:52.269Z,941.15
2019-03-08T09:32:00.415Z,941.20
2019-03-08T09:33:08.375Z,941.17
2019-03-08T09:34:16.437Z,941.32
2019-03-08T09:35:24.503Z,941.22
2019-03-08T09:36:32.572Z,941.17
2019-03-08T09:37:40.671Z,941.28
2019-03-08T09:38:48.685Z,941.19
2019-03-08T09:39:56.751Z,941.28
2019-03-08T09:41:04.823Z,941.31
2019-03-08T09:42:12.885Z,941.26
2019-03-08T09:43:20.950Z,941.35
2019-03-08T09:44:28.983Z,941.33
2019-03-08T09:45:37.166Z,941.36
2019-03-08T09:46:45.140Z,941.36
2019-03-08T09:47:53.257Z,941.35
2019-03-08T09:49:01.276Z,941.36
2019-03-08T09:50:09.309Z,941.31
2019-03-08T09:51:17.395Z,941.41
2019-03-08T09:52:25.464Z,941.32
2019-03-08T09:53:33.522Z,941.30
2019-03-08T09:54:41.576Z,941.32
2019-03-08T09:55:49.646Z,941.34
2019-03-08T09:56:57.703Z,941.42
2019-03-08T09:58:05.818Z,941.42
2019-03-08T09:59:13.831Z,941.43
2019-03-08T10:00:21.899Z,941.44
2019-03-08T10:01:30.054Z,941.39
2019-03-08T10:02:38.117Z,941.47
2019-03-08T10:03:46.540Z,941.43
2019-03-08T10:04:54.142Z,941.49
2019-03-08T10:06:02.210Z,941.55
2019-03-08T10:07:10.265Z,941.51
2019-03-08T10:08:18.373Z,941.48
2019-03-08T10:09:26.409Z,941.56
2019-03-08T10:10:34.455Z,941.54
2019-03-08T10:11:42.534Z,941.63
2019-03-08T10:12:50.602Z,941.68
2019-03-08T10:13:58.632Z,941.66
2019-03-08T10:15:06.725Z,941.71
2019-03-08T10:16:14.766Z,941.68
2019-03-08T10:17:22.928Z,941.73
2019-03-08T10:18:30.951Z,941.72
2019-03-08T10:19:38.948Z,941.85
2019-03-08T10:20:47.096Z,941.70
2019-03-08T10:21:55.099Z,941.86
2019-03-08T10:23:03.179Z,941.91
2019-03-08T10:24:11.231Z,941.92
2019-03-08T10:25:19.269Z,941.94
2019-03-08T10:26:27.348Z,941.92
2019-03-08T10:27:38.280Z,941.97
2019-03-08T10:28:43.577Z,942.02
2019-03-08T10:29:51.542Z,942.00
2019-03-08T10:30:59.598Z,942.00
2019-03-08T10:32:07.691Z,941.91
2019-03-08T10:33:15.787Z,942.01
2019-03-08T10:34:23.891Z,942.06
2019-03-08T10:35:31.864Z,942.00
2019-03-08T10:36:39.927Z,942.08
2019-03-08T10:37:48.009Z,942.01
2019-03-08T10:38:56.065Z,942.03
2019-03-08T10:40:05.660Z,941.97
2019-03-08T10:41:12.178Z,942.07
2019-03-08T10:42:20.256Z,942.07
2019-03-08T10:43:28.314Z,942.02
2019-03-08T10:44:36.371Z,942.04
2019-03-08T10:45:44.538Z,942.03
2019-03-08T10:46:52.521Z,942.00
2019-03-08T10:49:13.070Z,942.04
2019-03-08T10:50:21.144Z,942.01
2019-03-08T10:51:29.298Z,942.03
2019-03-08T10:52:37.284Z,942.19
2019-03-08T10:53:45.363Z,942.09
2019-03-08T10:54:53.430Z,942.06
2019-03-08T10:56:01.456Z,942.11
2019-03-08T10:57:09.637Z,942.18
2019-03-08T10:58:17.605Z,942.09
2019-03-08T10:59:25.651Z,942.14
2019-03-08T11:00:36.146Z,942.13
2019-03-08T11:01:44.209Z,942.12
2019-03-08T11:02:52.364Z,942.14
2019-03-08T11:04:00.327Z,942.18
2019-03-08T11:05:08.377Z,942.17
2019-03-08T11:06:16.454Z,942.18
2019-03-08T11:07:24.537Z,942.17
2019-03-08T11:08:32.598Z,942.16
2019-03-08T11:09:40.695Z,942.25
2019-03-08T11:10:48.706Z,942.17
2019-03-08T11:11:56.792Z,942.16
2019-03-08T11:13:04.963Z,942.10
2019-03-08T11:14:12.930Z,942.10
2019-03-08T11:15:24.326Z,942.13
2019-03-08T11:16:29.024Z,942.12
2019-03-08T11:17:37.168Z,942.10
2019-03-08T11:18:45.280Z,942.06
2019-03-08T11:19:53.244Z,942.08
2019-03-08T11:21:01.313Z,942.08
2019-03-08T11:22:09.352Z,942.15
2019-03-08T11:23:17.464Z,942.17
2019-03-08T11:24:25.596Z,942.20
2019-03-08T11:25:35.091Z,942.16
2019-03-08T11:26:41.640Z,942.05
2019-03-08T11:27:49.709Z,942.10
2019-03-08T11:28:57.773Z,942.03
2019-03-08T11:30:05.953Z,941.94
2019-03-08T11:31:13.897Z,942.00
2019-03-08T11:32:23.179Z,942.00
2019-03-08T11:33:30.036Z,942.07
2019-03-08T11:34:38.094Z,942.03
2019-03-08T11:35:46.596Z,942.06
2019-03-08T11:36:54.220Z,942.12
2019-03-08T11:38:02.277Z,942.08
2019-03-08T11:39:10.356Z,942.08
2019-03-08T11:40:18.396Z,942.10
2019-03-08T11:41:26.581Z,942.03
2019-03-08T11:42:34.538Z,942.07
2019-03-08T11:43:42.624Z,941.98
2019-03-08T11:44:50.732Z,941.93
2019-03-08T11:45:58.726Z,941.95
2019-03-08T11:47:06.898Z,941.97
2019-03-08T11:48:14.913Z,942.03
2019-03-08T11:49:22.933Z,942.02
2019-03-08T11:50:31.004Z,941.92
2019-03-08T11:51:39.050Z,941.96
2019-03-08T11:52:47.166Z,941.99
2019-03-08T11:53:56.292Z,941.91
2019-03-08T11:55:03.241Z,941.99
2019-03-08T11:56:11.331Z,941.95
2019-03-08T11:57:19.355Z,941.98
2019-03-08T11:58:27.491Z,941.88
2019-03-08T11:59:35.500Z,941.99
2019-03-08T12:00:43.561Z,941.99
2019-03-08T12:01:51.644Z,941.92
2019-03-08T12:02:59.753Z,941.87
2019-03-08T12:04:07.785Z,941.93
2019-03-08T12:05:15.818Z,941.87
2019-03-08T12:06:23.884Z,941.85
2019-03-08T12:07:31.971Z,941.84
2019-03-08T12:08:40.033Z,941.97
2019-03-08T12:09:48.091Z,941.89
2019-03-08T12:10:56.146Z,941.94
2019-03-08T12:12:04.228Z,941.96
2019-03-08T12:13:12.374Z,941.94
2019-03-08T12:14:20.341Z,941.85
2019-03-08T12:15:28.376Z,941.98
2019-03-08T12:16:36.458Z,941.89
2019-03-08T12:17:44.631Z,941.97
2019-03-08T12:18:52.690Z,941.92
2019-03-08T12:20:00.659Z,941.88
2019-03-08T12:21:08.722Z,941.82
2019-03-08T12:22:16.795Z,941.90
2019-03-08T12:23:24.847Z,941.90
2019-03-08T12:24:33.034Z,941.91
2019-03-08T12:25:41.064Z,941.88
2019-03-08T12:26:49.019Z,941.93
2019-03-08T12:27:57.102Z,941.87
2019-03-08T12:29:05.162Z,941.86
2019-03-08T12:30:13.329Z,941.90
2019-03-08T12:31:21.312Z,941.94
2019-03-08T12:32:29.333Z,941.97
2019-03-08T12:33:37.528Z,941.95
2019-03-08T12:34:45.484Z,941.97
2019-03-08T12:35:53.652Z,941.85
2019-03-08T12:37:01.623Z,941.93
2019-03-08T12:38:09.677Z,942.04
2019-03-08T12:39:17.741Z,942.03
2019-03-08T12:40:25.798Z,941.98
2019-03-08T12:41:33.964Z,941.97
2019-03-08T12:42:41.925Z,941.98
2019-03-08T12:43:50.005Z,941.97
2019-03-08T12:44:58.067Z,941.99
2019-03-08T12:46:06.121Z,942.06
2019-03-08T12:47:14.315Z,941.93
2019-03-08T12:48:23.990Z,942.01
2019-03-08T12:49:30.416Z,941.98
2019-03-08T12:50:38.402Z,942.07
2019-03-08T12:51:46.458Z,942.12
2019-03-08T12:52:54.561Z,942.10
2019-03-08T12:54:02.580Z,942.01
2019-03-08T12:55:10.650Z,941.98
2019-03-08T12:56:18.696Z,941.98
2019-03-08T12:57:26.875Z,941.94
2019-03-08T12:58:34.840Z,941.93
2019-03-08T12:59:42.899Z,941.94
2019-03-08T13:00:50.983Z,941.93
2019-03-08T13:01:59.006Z,941.98
2019-03-08T13:03:07.154Z,941.95
2019-03-08T13:04:15.155Z,941.87
2019-03-08T13:05:23.353Z,941.91
2019-03-08T13:06:31.289Z,941.87
2019-03-08T13:07:39.387Z,941.91
2019-03-08T13:08:47.420Z,941.94
2019-03-08T13:09:55.510Z,942.04
2019-03-08T13:11:03.549Z,941.98
2019-03-08T13:12:11.613Z,941.93
2019-03-08T13:13:19.724Z,941.91
2019-03-08T13:14:27.756Z,941.92
2019-03-08T13:15:35.805Z,942.01
2019-03-08T13:16:43.873Z,941.87
2019-03-08T13:17:52.026Z,941.99
2019-03-08T13:19:00.002Z,941.90
2019-03-08T13:20:08.062Z,941.93
2019-03-08T13:21:16.231Z,941.92
2019-03-08T13:22:24.187Z,941.92
2019-03-08T13:23:32.337Z,941.97
2019-03-08T13:24:40.327Z,942.02
2019-03-08T13:25:48.364Z,941.93
2019-03-08T13:26:56.449Z,941.99
2019-03-08T13:28:04.507Z,942.03
2019-03-08T13:29:12.680Z,942.08
2019-03-08T13:30:20.683Z,942.03
2019-03-08T13:31:28.722Z,942.03
2019-03-08T13:32:36.761Z,942.03
2019-03-08T13:33:44.821Z,941.95
2019-03-08T13:34:53.006Z,942.15
2019-03-08T13:36:00.965Z,942.15
2019-03-08T13:37:09.131Z,942.01
2019-03-08T13:38:17.100Z,941.99
2019-03-08T13:39:25.184Z,942.00
2019-03-08T13:40:33.325Z,942.06
2019-03-08T13:41:41.286Z,941.96
2019-03-08T13:42:49.320Z,941.98
2019-03-08T13:43:57.411Z,941.89
2019-03-08T13:45:05.472Z,941.89
2019-03-08T13:46:13.632Z,941.98
2019-03-08T13:47:21.605Z,942.03
2019-03-08T13:48:29.669Z,942.01
2019-03-08T13:49:37.737Z,942.15
2019-03-08T13:50:45.830Z,942.14
2019-03-08T13:51:53.996Z,942.02
2019-03-08T13:53:02.041Z,942.07
2019-03-08T13:54:09.997Z,942.07
2019-03-08T13:55:18.059Z,942.02
2019-03-08T13:56:26.119Z,942.16
2019-03-08T13:57:34.251Z,942.14
2019-03-08T13:58:42.256Z,942.14
2019-03-08T13:59:50.305Z,942.16
2019-03-08T14:00:58.377Z,942.21
2019-03-08T14:02:06.446Z,942.13
2019-03-08T14:03:14.549Z,942.13
2019-03-08T14:04:22.568Z,942.14
2019-03-08T14:05:30.624Z,942.09
2019-03-08T14:06:38.680Z,942.14
2019-03-08T14:07:46.860Z,942.09
2019-03-08T14:08:54.823Z,942.09
2019-03-08T14:10:02.885Z,942.16
2019-03-08T14:11:10.947Z,942.13
2019-03-08T14:12:18.995Z,942.19